sensor_id;sensor_type;location;lat;lon;timestamp;temperature;humidity
21861;DHT22;11095;48.066;8.540;2022-11-21T00:00:58;2.30;99.90
21861;DHT22;11095;48.066;8.540;2022-11-21T00:03:24;2.20;99.90
21861;DHT22;11095;48.066;8.540;2022-11-21T00:05:50;2.20;99.90
21861;DHT22;11095;48.066;8.540;2022-11-21T00:08:18;2.20;99.90
21861;DHT22;11095;48.066;8.540;2022-11-21T00:10:44;2.20;99.90
21861;DHT22;11095;48.066;8.540;2022-11-21T00:13:18;2.30;99.90
21861;DHT22;11095;48.066;8.540;2022-11-21T00:15:44;2.30;99.90
21861;DHT22;11095;48.066;8.540;2022-11-21T00:18:11;2.30;99.90
21861;DHT22;11095;48.066;8.540;2022-11-21T00:20:37;2.40;99.90
21861;DHT22;11095;48.066;8.540;2022-11-21T00:23:03;2.40;99.90
21861;DHT22;11095;48.066;8.540;2022-11-21T00:25:29;2.40;99.90
21861;DHT22;11095;48.066;8.540;2022-11-21T00:27:55;2.40;99.90
21861;DHT22;11095;48.066;8.540;2022-11-21T00:30:20;2.40;99.90
21861;DHT22;11095;48.066;8.540;2022-11-21T00:32:46;2.50;99.90
21861;DHT22;11095;48.066;8.540;2022-11-21T00:35:12;2.50;99.90
21861;DHT22;11095;48.066;8.540;2022-11-21T00:37:38;2.60;99.90
21861;DHT22;11095;48.066;8.540;2022-11-21T00:40:04;2.60;99.90
21861;DHT22;11095;48.066;8.540;2022-11-21T00:42:29;2.70;99.90
21861;DHT22;11095;48.066;8.540;2022-11-21T00:44:55;2.70;99.90
21861;DHT22;11095;48.066;8.540;2022-11-21T00:47:21;2.70;99.90
21861;DHT22;11095;48.066;8.540;2022-11-21T00:49:46;2.70;99.90
21861;DHT22;11095;48.066;8.540;2022-11-21T00:52:12;2.80;99.90
21861;DHT22;11095;48.066;8.540;2022-11-21T00:54:38;2.80;99.90
21861;DHT22;11095;48.066;8.540;2022-11-21T00:57:03;2.90;99.90
21861;DHT22;11095;48.066;8.540;2022-11-21T00:59:29;2.80;99.90
21861;DHT22;11095;48.066;8.540;2022-11-21T01:01:55;2.80;99.90
21861;DHT22;11095;48.066;8.540;2022-11-21T01:04:20;2.80;99.90
21861;DHT22;11095;48.066;8.540;2022-11-21T01:06:46;2.90;99.90
21861;DHT22;11095;48.066;8.540;2022-11-21T01:09:12;2.90;99.90
21861;DHT22;11095;48.066;8.540;2022-11-21T01:11:37;2.90;99.90
21861;DHT22;11095;48.066;8.540;2022-11-21T01:14:03;2.90;99.90
21861;DHT22;11095;48.066;8.540;2022-11-21T01:16:29;3.00;99.90
21861;DHT22;11095;48.066;8.540;2022-11-21T01:18:56;2.90;99.90
21861;DHT22;11095;48.066;8.540;2022-11-21T01:21:24;3.00;99.90
21861;DHT22;11095;48.066;8.540;2022-11-21T01:23:51;3.00;99.90
21861;DHT22;11095;48.066;8.540;2022-11-21T01:26:22;3.00;99.90
21861;DHT22;11095;48.066;8.540;2022-11-21T01:28:49;3.10;99.90
21861;DHT22;11095;48.066;8.540;2022-11-21T01:31:20;3.10;99.90
21861;DHT22;11095;48.066;8.540;2022-11-21T01:33:47;3.10;99.90
21861;DHT22;11095;48.066;8.540;2022-11-21T01:36:21;3.10;99.90
21861;DHT22;11095;48.066;8.540;2022-11-21T01:38:48;3.10;99.90
21861;DHT22;11095;48.066;8.540;2022-11-21T01:41:20;3.10;99.90
21861;DHT22;11095;48.066;8.540;2022-11-21T01:43:45;3.10;99.90
21861;DHT22;11095;48.066;8.540;2022-11-21T01:46:16;3.10;99.90
21861;DHT22;11095;48.066;8.540;2022-11-21T01:52:10;3.00;99.90
21861;DHT22;11095;48.066;8.540;2022-11-21T01:54:18;2.90;99.90
21861;DHT22;11095;48.066;8.540;2022-11-21T01:59:50;2.80;99.90
21861;DHT22;11095;48.066;8.540;2022-11-21T02:02:20;2.80;99.90
21861;DHT22;11095;48.066;8.540;2022-11-21T02:04:48;2.70;99.90
21861;DHT22;11095;48.066;8.540;2022-11-21T02:07:17;2.70;99.90
21861;DHT22;11095;48.066;8.540;2022-11-21T02:09:48;2.70;99.90
21861;DHT22;11095;48.066;8.540;2022-11-21T02:12:29;2.70;99.90
21861;DHT22;11095;48.066;8.540;2022-11-21T02:14:57;2.70;99.90
21861;DHT22;11095;48.066;8.540;2022-11-21T02:17:25;2.70;99.90
21861;DHT22;11095;48.066;8.540;2022-11-21T02:19:54;2.70;99.90
21861;DHT22;11095;48.066;8.540;2022-11-21T02:22:47;2.70;99.90
21861;DHT22;11095;48.066;8.540;2022-11-21T02:25:24;2.70;99.90
21861;DHT22;11095;48.066;8.540;2022-11-21T02:27:54;2.70;99.90
21861;DHT22;11095;48.066;8.540;2022-11-21T02:30:22;2.70;99.90
21861;DHT22;11095;48.066;8.540;2022-11-21T02:32:48;2.70;99.90
21861;DHT22;11095;48.066;8.540;2022-11-21T02:35:16;2.70;99.90
21861;DHT22;11095;48.066;8.540;2022-11-21T02:37:43;2.80;99.90
21861;DHT22;11095;48.066;8.540;2022-11-21T02:40:17;2.80;99.90
21861;DHT22;11095;48.066;8.540;2022-11-21T02:42:55;2.80;99.90
21861;DHT22;11095;48.066;8.540;2022-11-21T02:45:42;2.80;99.90
21861;DHT22;11095;48.066;8.540;2022-11-21T02:48:09;2.80;99.90
21861;DHT22;11095;48.066;8.540;2022-11-21T02:50:40;2.80;99.90
21861;DHT22;11095;48.066;8.540;2022-11-21T02:53:09;2.90;99.90
21861;DHT22;11095;48.066;8.540;2022-11-21T02:55:35;2.90;99.90
21861;DHT22;11095;48.066;8.540;2022-11-21T02:58:00;2.90;99.90
21861;DHT22;11095;48.066;8.540;2022-11-21T03:00:26;2.90;99.90
21861;DHT22;11095;48.066;8.540;2022-11-21T03:02:52;2.90;99.90
21861;DHT22;11095;48.066;8.540;2022-11-21T03:05:19;2.90;99.90
21861;DHT22;11095;48.066;8.540;2022-11-21T03:07:45;2.90;99.90
21861;DHT22;11095;48.066;8.540;2022-11-21T03:10:11;2.80;99.90
21861;DHT22;11095;48.066;8.540;2022-11-21T03:12:41;2.90;99.90
21861;DHT22;11095;48.066;8.540;2022-11-21T03:15:09;2.90;99.90
21861;DHT22;11095;48.066;8.540;2022-11-21T03:17:35;2.90;99.90
21861;DHT22;11095;48.066;8.540;2022-11-21T03:20:02;2.90;99.90
21861;DHT22;11095;48.066;8.540;2022-11-21T03:22:28;2.90;99.90
21861;DHT22;11095;48.066;8.540;2022-11-21T03:24:53;2.90;99.90
21861;DHT22;11095;48.066;8.540;2022-11-21T03:27:19;2.90;99.90
21861;DHT22;11095;48.066;8.540;2022-11-21T03:29:45;2.90;99.90
21861;DHT22;11095;48.066;8.540;2022-11-21T03:32:10;2.90;99.90
21861;DHT22;11095;48.066;8.540;2022-11-21T03:34:36;2.90;99.90
21861;DHT22;11095;48.066;8.540;2022-11-21T03:37:02;2.90;99.90
21861;DHT22;11095;48.066;8.540;2022-11-21T03:39:30;2.90;99.90
21861;DHT22;11095;48.066;8.540;2022-11-21T03:41:56;2.90;99.90
21861;DHT22;11095;48.066;8.540;2022-11-21T03:44:22;2.90;99.90
21861;DHT22;11095;48.066;8.540;2022-11-21T03:46:48;2.90;99.90
21861;DHT22;11095;48.066;8.540;2022-11-21T03:49:14;2.90;99.90
21861;DHT22;11095;48.066;8.540;2022-11-21T03:51:42;2.80;99.90
21861;DHT22;11095;48.066;8.540;2022-11-21T03:54:08;2.80;99.90
21861;DHT22;11095;48.066;8.540;2022-11-21T03:56:34;2.80;99.90
21861;DHT22;11095;48.066;8.540;2022-11-21T03:59:00;2.80;99.90
21861;DHT22;11095;48.066;8.540;2022-11-21T04:01:26;2.80;99.90
21861;DHT22;11095;48.066;8.540;2022-11-21T04:03:52;2.80;99.90
21861;DHT22;11095;48.066;8.540;2022-11-21T04:06:20;2.70;99.90
21861;DHT22;11095;48.066;8.540;2022-11-21T04:08:47;2.70;99.90
21861;DHT22;11095;48.066;8.540;2022-11-21T04:11:13;2.80;99.90
21861;DHT22;11095;48.066;8.540;2022-11-21T04:13:39;2.80;99.90
21861;DHT22;11095;48.066;8.540;2022-11-21T04:16:05;2.80;99.90
21861;DHT22;11095;48.066;8.540;2022-11-21T04:18:30;2.80;99.90
21861;DHT22;11095;48.066;8.540;2022-11-21T04:20:57;2.80;99.90
21861;DHT22;11095;48.066;8.540;2022-11-21T04:23:23;2.90;99.90
21861;DHT22;11095;48.066;8.540;2022-11-21T04:25:49;2.90;99.90
21861;DHT22;11095;48.066;8.540;2022-11-21T04:28:15;2.80;99.90
21861;DHT22;11095;48.066;8.540;2022-11-21T04:30:40;2.80;99.90
21861;DHT22;11095;48.066;8.540;2022-11-21T04:33:11;2.60;99.90
21861;DHT22;11095;48.066;8.540;2022-11-21T04:35:37;2.50;99.90
21861;DHT22;11095;48.066;8.540;2022-11-21T04:38:03;2.40;99.90
21861;DHT22;11095;48.066;8.540;2022-11-21T04:40:28;2.30;99.90
21861;DHT22;11095;48.066;8.540;2022-11-21T04:42:54;2.20;99.90
21861;DHT22;11095;48.066;8.540;2022-11-21T04:45:20;2.20;99.90
21861;DHT22;11095;48.066;8.540;2022-11-21T04:47:46;2.10;99.90
21861;DHT22;11095;48.066;8.540;2022-11-21T04:50:14;2.10;99.90
21861;DHT22;11095;48.066;8.540;2022-11-21T04:52:40;2.10;99.90
21861;DHT22;11095;48.066;8.540;2022-11-21T04:55:06;2.10;99.90
21861;DHT22;11095;48.066;8.540;2022-11-21T04:57:32;2.10;99.90
21861;DHT22;11095;48.066;8.540;2022-11-21T04:59:58;2.20;99.90
21861;DHT22;11095;48.066;8.540;2022-11-21T05:02:24;2.20;99.90
21861;DHT22;11095;48.066;8.540;2022-11-21T05:04:49;2.20;99.90
21861;DHT22;11095;48.066;8.540;2022-11-21T05:07:16;2.30;99.90
21861;DHT22;11095;48.066;8.540;2022-11-21T05:09:42;2.30;99.90
21861;DHT22;11095;48.066;8.540;2022-11-21T05:12:10;2.40;99.90
21861;DHT22;11095;48.066;8.540;2022-11-21T05:14:55;2.40;99.90
21861;DHT22;11095;48.066;8.540;2022-11-21T05:17:21;2.40;99.90
21861;DHT22;11095;48.066;8.540;2022-11-21T05:19:47;2.50;99.90
21861;DHT22;11095;48.066;8.540;2022-11-21T05:22:12;2.50;99.90
21861;DHT22;11095;48.066;8.540;2022-11-21T05:24:38;2.60;99.90
21861;DHT22;11095;48.066;8.540;2022-11-21T05:27:04;2.60;99.90
21861;DHT22;11095;48.066;8.540;2022-11-21T05:29:30;2.70;99.90
21861;DHT22;11095;48.066;8.540;2022-11-21T05:31:55;2.70;99.90
21861;DHT22;11095;48.066;8.540;2022-11-21T05:34:21;2.80;99.90
21861;DHT22;11095;48.066;8.540;2022-11-21T05:36:47;2.80;99.90
21861;DHT22;11095;48.066;8.540;2022-11-21T05:39:13;2.90;99.90
21861;DHT22;11095;48.066;8.540;2022-11-21T05:41:40;2.90;99.90
21861;DHT22;11095;48.066;8.540;2022-11-21T05:44:06;2.90;99.90
21861;DHT22;11095;48.066;8.540;2022-11-21T05:46:32;2.90;99.90
21861;DHT22;11095;48.066;8.540;2022-11-21T05:48:57;2.80;99.90
21861;DHT22;11095;48.066;8.540;2022-11-21T05:51:23;2.70;99.90
21861;DHT22;11095;48.066;8.540;2022-11-21T05:53:49;2.70;99.90
21861;DHT22;11095;48.066;8.540;2022-11-21T05:56:16;2.60;99.90
21861;DHT22;11095;48.066;8.540;2022-11-21T05:58:42;2.50;99.90
21861;DHT22;11095;48.066;8.540;2022-11-21T06:01:09;2.40;99.90
21861;DHT22;11095;48.066;8.540;2022-11-21T06:03:39;2.40;99.90
21861;DHT22;11095;48.066;8.540;2022-11-21T06:06:12;2.30;99.90
21861;DHT22;11095;48.066;8.540;2022-11-21T06:08:44;2.20;99.90
21861;DHT22;11095;48.066;8.540;2022-11-21T06:11:12;2.20;99.90
21861;DHT22;11095;48.066;8.540;2022-11-21T06:13:38;2.10;99.90
21861;DHT22;11095;48.066;8.540;2022-11-21T06:18:32;2.10;99.90
21861;DHT22;11095;48.066;8.540;2022-11-21T06:21:11;2.00;99.90
21861;DHT22;11095;48.066;8.540;2022-11-21T06:23:37;2.00;99.90
21861;DHT22;11095;48.066;8.540;2022-11-21T06:26:05;1.90;99.90
21861;DHT22;11095;48.066;8.540;2022-11-21T06:28:36;1.90;99.90
21861;DHT22;11095;48.066;8.540;2022-11-21T06:33:29;1.90;99.90
21861;DHT22;11095;48.066;8.540;2022-11-21T06:35:54;1.90;99.90
21861;DHT22;11095;48.066;8.540;2022-11-21T06:38:20;1.90;99.90
21861;DHT22;11095;48.066;8.540;2022-11-21T06:40:46;2.00;99.90
21861;DHT22;11095;48.066;8.540;2022-11-21T06:43:12;2.10;99.90
21861;DHT22;11095;48.066;8.540;2022-11-21T06:45:37;2.10;99.90
21861;DHT22;11095;48.066;8.540;2022-11-21T06:48:03;2.10;99.90
21861;DHT22;11095;48.066;8.540;2022-11-21T06:50:29;2.10;99.90
21861;DHT22;11095;48.066;8.540;2022-11-21T06:52:59;2.10;99.90
21861;DHT22;11095;48.066;8.540;2022-11-21T06:55:25;2.10;99.90
21861;DHT22;11095;48.066;8.540;2022-11-21T06:57:52;2.10;99.90
21861;DHT22;11095;48.066;8.540;2022-11-21T07:00:20;2.20;99.90
21861;DHT22;11095;48.066;8.540;2022-11-21T07:02:46;2.20;99.90
21861;DHT22;11095;48.066;8.540;2022-11-21T07:05:12;2.30;99.90
21861;DHT22;11095;48.066;8.540;2022-11-21T07:07:37;2.30;99.90
21861;DHT22;11095;48.066;8.540;2022-11-21T07:10:03;2.30;99.90
21861;DHT22;11095;48.066;8.540;2022-11-21T07:12:29;2.30;99.90
21861;DHT22;11095;48.066;8.540;2022-11-21T07:15:13;2.30;99.90
21861;DHT22;11095;48.066;8.540;2022-11-21T07:17:39;2.30;99.90
21861;DHT22;11095;48.066;8.540;2022-11-21T07:20:05;2.30;99.90
21861;DHT22;11095;48.066;8.540;2022-11-21T07:22:31;2.40;99.90
21861;DHT22;11095;48.066;8.540;2022-11-21T07:24:56;2.50;99.90
21861;DHT22;11095;48.066;8.540;2022-11-21T07:27:22;2.60;99.90
21861;DHT22;11095;48.066;8.540;2022-11-21T07:29:48;2.90;99.90
21861;DHT22;11095;48.066;8.540;2022-11-21T07:32:13;3.20;99.90
21861;DHT22;11095;48.066;8.540;2022-11-21T07:34:39;3.30;99.90
21861;DHT22;11095;48.066;8.540;2022-11-21T07:37:05;3.60;99.90
21861;DHT22;11095;48.066;8.540;2022-11-21T07:39:30;4.30;99.90
21861;DHT22;11095;48.066;8.540;2022-11-21T07:41:56;5.10;99.90
21861;DHT22;11095;48.066;8.540;2022-11-21T07:44:22;5.70;99.90
21861;DHT22;11095;48.066;8.540;2022-11-21T07:46:47;5.80;99.90
21861;DHT22;11095;48.066;8.540;2022-11-21T07:49:13;5.70;99.90
21861;DHT22;11095;48.066;8.540;2022-11-21T07:51:38;6.20;99.90
21861;DHT22;11095;48.066;8.540;2022-11-21T07:54:04;7.10;99.90
21861;DHT22;11095;48.066;8.540;2022-11-21T07:56:30;7.30;99.90
21861;DHT22;11095;48.066;8.540;2022-11-21T07:58:55;7.30;99.90
21861;DHT22;11095;48.066;8.540;2022-11-21T08:01:21;7.80;99.90
21861;DHT22;11095;48.066;8.540;2022-11-21T08:03:47;8.40;99.90
21861;DHT22;11095;48.066;8.540;2022-11-21T08:06:12;8.30;99.90
21861;DHT22;11095;48.066;8.540;2022-11-21T08:08:38;8.00;99.90
21861;DHT22;11095;48.066;8.540;2022-11-21T08:11:04;8.20;99.90
21861;DHT22;11095;48.066;8.540;2022-11-21T08:13:30;8.50;99.90
21861;DHT22;11095;48.066;8.540;2022-11-21T08:15:56;9.00;99.90
21861;DHT22;11095;48.066;8.540;2022-11-21T08:18:22;9.40;99.90
21861;DHT22;11095;48.066;8.540;2022-11-21T08:20:48;9.80;99.90
21861;DHT22;11095;48.066;8.540;2022-11-21T08:23:14;10.20;99.90
21861;DHT22;11095;48.066;8.540;2022-11-21T08:25:40;10.30;99.90
21861;DHT22;11095;48.066;8.540;2022-11-21T08:28:08;10.90;99.90
21861;DHT22;11095;48.066;8.540;2022-11-21T08:30:35;11.40;99.90
21861;DHT22;11095;48.066;8.540;2022-11-21T08:33:00;11.10;99.90
21861;DHT22;11095;48.066;8.540;2022-11-21T08:35:27;10.60;99.90
21861;DHT22;11095;48.066;8.540;2022-11-21T08:37:57;9.90;99.90
21861;DHT22;11095;48.066;8.540;2022-11-21T08:40:23;9.20;99.90
21861;DHT22;11095;48.066;8.540;2022-11-21T08:42:58;8.60;99.90
21861;DHT22;11095;48.066;8.540;2022-11-21T08:45:24;8.20;99.90
21861;DHT22;11095;48.066;8.540;2022-11-21T08:47:51;7.80;99.90
21861;DHT22;11095;48.066;8.540;2022-11-21T08:50:16;7.50;99.90
21861;DHT22;11095;48.066;8.540;2022-11-21T08:52:42;7.10;99.90
21861;DHT22;11095;48.066;8.540;2022-11-21T08:55:08;6.80;99.90
21861;DHT22;11095;48.066;8.540;2022-11-21T08:57:37;6.50;99.90
21861;DHT22;11095;48.066;8.540;2022-11-21T09:00:05;6.30;99.90
21861;DHT22;11095;48.066;8.540;2022-11-21T09:02:31;6.20;99.90
21861;DHT22;11095;48.066;8.540;2022-11-21T09:04:56;6.20;99.90
21861;DHT22;11095;48.066;8.540;2022-11-21T09:07:22;6.30;99.90
21861;DHT22;11095;48.066;8.540;2022-11-21T09:09:48;6.30;99.90
21861;DHT22;11095;48.066;8.540;2022-11-21T09:12:14;6.40;99.90
21861;DHT22;11095;48.066;8.540;2022-11-21T09:14:40;6.60;99.90
21861;DHT22;11095;48.066;8.540;2022-11-21T09:17:24;6.80;99.90
21861;DHT22;11095;48.066;8.540;2022-11-21T09:20:08;7.30;99.90
21861;DHT22;11095;48.066;8.540;2022-11-21T09:22:34;7.70;99.90
21861;DHT22;11095;48.066;8.540;2022-11-21T09:24:59;8.10;99.90
21861;DHT22;11095;48.066;8.540;2022-11-21T09:27:25;8.30;99.90
21861;DHT22;11095;48.066;8.540;2022-11-21T09:29:51;8.30;99.90
21861;DHT22;11095;48.066;8.540;2022-11-21T09:32:16;8.20;99.90
21861;DHT22;11095;48.066;8.540;2022-11-21T09:34:42;8.00;99.90
21861;DHT22;11095;48.066;8.540;2022-11-21T09:37:08;7.70;99.90
21861;DHT22;11095;48.066;8.540;2022-11-21T09:39:33;7.40;99.90
21861;DHT22;11095;48.066;8.540;2022-11-21T09:50:00;6.60;99.90
21861;DHT22;11095;48.066;8.540;2022-11-21T09:52:30;6.60;99.90
21861;DHT22;11095;48.066;8.540;2022-11-21T09:54:59;6.70;99.90
21861;DHT22;11095;48.066;8.540;2022-11-21T09:57:25;6.80;99.90
21861;DHT22;11095;48.066;8.540;2022-11-21T09:59:51;7.00;99.90
21861;DHT22;11095;48.066;8.540;2022-11-21T10:02:20;7.60;99.90
21861;DHT22;11095;48.066;8.540;2022-11-21T10:04:47;8.10;99.90
21861;DHT22;11095;48.066;8.540;2022-11-21T10:07:24;8.60;99.90
21861;DHT22;11095;48.066;8.540;2022-11-21T10:12:35;10.10;99.90
21861;DHT22;11095;48.066;8.540;2022-11-21T10:18:38;10.20;99.90
21861;DHT22;11095;48.066;8.540;2022-11-21T10:26:45;9.20;99.90
21861;DHT22;11095;48.066;8.540;2022-11-21T10:32:34;8.30;99.90
21861;DHT22;11095;48.066;8.540;2022-11-21T10:35:15;8.20;99.90
21861;DHT22;11095;48.066;8.540;2022-11-21T10:37:59;8.20;99.90
21861;DHT22;11095;48.066;8.540;2022-11-21T10:40:38;8.20;99.90
21861;DHT22;11095;48.066;8.540;2022-11-21T10:46:17;8.40;99.90
21861;DHT22;11095;48.066;8.540;2022-11-21T10:48:59;8.30;99.90
21861;DHT22;11095;48.066;8.540;2022-11-21T10:54:28;8.00;99.90
21861;DHT22;11095;48.066;8.540;2022-11-21T10:59:28;7.70;99.90
21861;DHT22;11095;48.066;8.540;2022-11-21T11:01:59;7.60;99.90
21861;DHT22;11095;48.066;8.540;2022-11-21T11:04:30;7.60;99.90
21861;DHT22;11095;48.066;8.540;2022-11-21T11:06:57;7.50;99.90
21861;DHT22;11095;48.066;8.540;2022-11-21T11:09:37;7.40;99.90
21861;DHT22;11095;48.066;8.540;2022-11-21T11:12:25;7.40;99.90
21861;DHT22;11095;48.066;8.540;2022-11-21T11:15:23;7.30;99.90
21861;DHT22;11095;48.066;8.540;2022-11-21T11:17:56;7.30;99.90
21861;DHT22;11095;48.066;8.540;2022-11-21T11:20:38;7.20;99.90
21861;DHT22;11095;48.066;8.540;2022-11-21T11:25:45;7.30;99.90
21861;DHT22;11095;48.066;8.540;2022-11-21T11:28:12;7.40;99.90
21861;DHT22;11095;48.066;8.540;2022-11-21T11:30:39;7.50;99.90
21861;DHT22;11095;48.066;8.540;2022-11-21T11:38:54;7.80;99.90
21861;DHT22;11095;48.066;8.540;2022-11-21T11:47:23;7.80;99.90
21861;DHT22;11095;48.066;8.540;2022-11-21T11:50:02;7.70;99.90
21861;DHT22;11095;48.066;8.540;2022-11-21T11:52:42;7.70;99.90
21861;DHT22;11095;48.066;8.540;2022-11-21T11:55:50;7.70;99.90
21861;DHT22;11095;48.066;8.540;2022-11-21T11:58:30;7.80;99.90
21861;DHT22;11095;48.066;8.540;2022-11-21T12:14:35;7.60;99.90
21861;DHT22;11095;48.066;8.540;2022-11-21T12:17:34;7.60;99.90
21861;DHT22;11095;48.066;8.540;2022-11-21T12:20:11;7.60;99.90
21861;DHT22;11095;48.066;8.540;2022-11-21T12:22:38;7.60;99.90
21861;DHT22;11095;48.066;8.540;2022-11-21T12:25:12;7.60;99.90
21861;DHT22;11095;48.066;8.540;2022-11-21T12:27:40;7.60;99.90
21861;DHT22;11095;48.066;8.540;2022-11-21T12:38:39;7.40;99.90
21861;DHT22;11095;48.066;8.540;2022-11-21T12:44:28;7.30;99.90
21861;DHT22;11095;48.066;8.540;2022-11-21T12:47:09;7.30;99.90
21861;DHT22;11095;48.066;8.540;2022-11-21T12:49:53;7.20;99.90
21861;DHT22;11095;48.066;8.540;2022-11-21T12:53:11;7.30;99.90
21861;DHT22;11095;48.066;8.540;2022-11-21T12:56:04;7.30;99.90
21861;DHT22;11095;48.066;8.540;2022-11-21T12:58:38;7.30;99.90
21861;DHT22;11095;48.066;8.540;2022-11-21T13:02:14;7.30;99.90
21861;DHT22;11095;48.066;8.540;2022-11-21T13:04:21;7.40;99.90
21861;DHT22;11095;48.066;8.540;2022-11-21T13:06:51;7.50;99.90
21861;DHT22;11095;48.066;8.540;2022-11-21T13:09:19;7.70;99.90
21861;DHT22;11095;48.066;8.540;2022-11-21T13:11:59;7.70;99.90
21861;DHT22;11095;48.066;8.540;2022-11-21T13:20:20;7.90;99.90
21861;DHT22;11095;48.066;8.540;2022-11-21T13:22:53;8.00;99.90
21861;DHT22;11095;48.066;8.540;2022-11-21T13:30:47;7.90;99.90
21861;DHT22;11095;48.066;8.540;2022-11-21T13:33:46;7.90;99.90
21861;DHT22;11095;48.066;8.540;2022-11-21T13:49:48;7.60;99.90
21861;DHT22;11095;48.066;8.540;2022-11-21T13:58:17;7.40;99.90
21861;DHT22;11095;48.066;8.540;2022-11-21T14:00:51;7.30;99.90
21861;DHT22;11095;48.066;8.540;2022-11-21T14:08:39;7.20;99.90
21861;DHT22;11095;48.066;8.540;2022-11-21T14:11:31;7.20;99.90
21861;DHT22;11095;48.066;8.540;2022-11-21T14:14:00;7.10;99.90
21861;DHT22;11095;48.066;8.540;2022-11-21T14:16:36;7.10;99.90
21861;DHT22;11095;48.066;8.540;2022-11-21T14:19:16;7.10;99.90
21861;DHT22;11095;48.066;8.540;2022-11-21T14:21:44;7.00;99.90
21861;DHT22;11095;48.066;8.540;2022-11-21T14:24:19;7.00;99.90
21861;DHT22;11095;48.066;8.540;2022-11-21T14:26:48;6.90;99.90
21861;DHT22;11095;48.066;8.540;2022-11-21T14:29:39;6.90;99.90
21861;DHT22;11095;48.066;8.540;2022-11-21T14:32:12;6.90;99.90
21861;DHT22;11095;48.066;8.540;2022-11-21T14:34:38;6.80;99.90
21861;DHT22;11095;48.066;8.540;2022-11-21T14:37:05;6.80;99.90
21861;DHT22;11095;48.066;8.540;2022-11-21T14:39:33;6.70;99.90
21861;DHT22;11095;48.066;8.540;2022-11-21T14:42:03;6.70;99.90
21861;DHT22;11095;48.066;8.540;2022-11-21T14:44:29;6.60;99.90
21861;DHT22;11095;48.066;8.540;2022-11-21T14:47:21;6.50;99.90
21861;DHT22;11095;48.066;8.540;2022-11-21T14:49:52;6.40;99.90
21861;DHT22;11095;48.066;8.540;2022-11-21T14:52:24;6.30;99.90
21861;DHT22;11095;48.066;8.540;2022-11-21T14:54:58;6.20;99.90
21861;DHT22;11095;48.066;8.540;2022-11-21T14:57:29;6.10;99.90
21861;DHT22;11095;48.066;8.540;2022-11-21T14:59:57;6.00;99.90
21861;DHT22;11095;48.066;8.540;2022-11-21T15:02:25;6.00;99.90
21861;DHT22;11095;48.066;8.540;2022-11-21T15:04:53;6.00;99.90
21861;DHT22;11095;48.066;8.540;2022-11-21T15:07:26;5.90;99.90
21861;DHT22;11095;48.066;8.540;2022-11-21T15:09:52;5.80;99.90
21861;DHT22;11095;48.066;8.540;2022-11-21T15:17:23;5.60;99.90
21861;DHT22;11095;48.066;8.540;2022-11-21T15:20:23;5.50;99.90
21861;DHT22;11095;48.066;8.540;2022-11-21T15:22:49;5.40;99.90
21861;DHT22;11095;48.066;8.540;2022-11-21T15:25:24;5.30;99.90
21861;DHT22;11095;48.066;8.540;2022-11-21T15:30:30;5.20;99.90
21861;DHT22;11095;48.066;8.540;2022-11-21T15:33:06;5.10;99.90
21861;DHT22;11095;48.066;8.540;2022-11-21T15:35:52;5.10;99.90
21861;DHT22;11095;48.066;8.540;2022-11-21T15:38:42;5.00;99.90
21861;DHT22;11095;48.066;8.540;2022-11-21T15:43:44;4.90;99.90
21861;DHT22;11095;48.066;8.540;2022-11-21T15:46:17;4.80;99.90
21861;DHT22;11095;48.066;8.540;2022-11-21T15:48:51;4.70;99.90
21861;DHT22;11095;48.066;8.540;2022-11-21T15:51:23;4.60;99.90
21861;DHT22;11095;48.066;8.540;2022-11-21T15:53:49;4.50;99.90
21861;DHT22;11095;48.066;8.540;2022-11-21T15:56:19;4.40;99.90
21861;DHT22;11095;48.066;8.540;2022-11-21T15:58:45;4.30;99.90
21861;DHT22;11095;48.066;8.540;2022-11-21T16:01:22;4.30;99.90
21861;DHT22;11095;48.066;8.540;2022-11-21T16:03:50;4.30;99.90
21861;DHT22;11095;48.066;8.540;2022-11-21T16:06:16;4.30;99.90
21861;DHT22;11095;48.066;8.540;2022-11-21T16:08:42;4.20;99.90
21861;DHT22;11095;48.066;8.540;2022-11-21T16:11:20;4.20;99.90
21861;DHT22;11095;48.066;8.540;2022-11-21T16:13:58;4.20;99.90
21861;DHT22;11095;48.066;8.540;2022-11-21T16:16:26;4.20;99.90
21861;DHT22;11095;48.066;8.540;2022-11-21T16:18:52;4.10;99.90
21861;DHT22;11095;48.066;8.540;2022-11-21T16:21:18;4.00;99.90
21861;DHT22;11095;48.066;8.540;2022-11-21T16:23:43;4.00;99.90
21861;DHT22;11095;48.066;8.540;2022-11-21T16:26:10;3.90;99.90
21861;DHT22;11095;48.066;8.540;2022-11-21T16:28:36;3.90;99.90
21861;DHT22;11095;48.066;8.540;2022-11-21T16:31:03;3.90;99.90
21861;DHT22;11095;48.066;8.540;2022-11-21T16:33:29;3.80;99.90
21861;DHT22;11095;48.066;8.540;2022-11-21T16:35:55;3.80;99.90
21861;DHT22;11095;48.066;8.540;2022-11-21T16:38:28;3.70;99.90
21861;DHT22;11095;48.066;8.540;2022-11-21T16:41:02;3.70;99.90
21861;DHT22;11095;48.066;8.540;2022-11-21T16:43:30;3.70;99.90
21861;DHT22;11095;48.066;8.540;2022-11-21T16:46:07;3.70;99.90
21861;DHT22;11095;48.066;8.540;2022-11-21T16:48:34;3.60;99.90
21861;DHT22;11095;48.066;8.540;2022-11-21T16:53:35;3.50;99.90
21861;DHT22;11095;48.066;8.540;2022-11-21T16:56:01;3.40;99.90
21861;DHT22;11095;48.066;8.540;2022-11-21T16:58:27;3.40;99.90
21861;DHT22;11095;48.066;8.540;2022-11-21T17:00:52;3.30;99.90
21861;DHT22;11095;48.066;8.540;2022-11-21T17:03:18;3.30;99.90
21861;DHT22;11095;48.066;8.540;2022-11-21T17:05:58;3.30;99.90
21861;DHT22;11095;48.066;8.540;2022-11-21T17:08:24;3.30;99.90
21861;DHT22;11095;48.066;8.540;2022-11-21T17:10:50;3.30;99.90
21861;DHT22;11095;48.066;8.540;2022-11-21T17:13:16;3.30;99.90
21861;DHT22;11095;48.066;8.540;2022-11-21T17:15:41;3.30;99.90
21861;DHT22;11095;48.066;8.540;2022-11-21T17:18:07;3.30;99.90
21861;DHT22;11095;48.066;8.540;2022-11-21T17:20:32;3.30;99.90
21861;DHT22;11095;48.066;8.540;2022-11-21T17:22:58;3.40;99.90
21861;DHT22;11095;48.066;8.540;2022-11-21T17:25:23;3.40;99.90
21861;DHT22;11095;48.066;8.540;2022-11-21T17:27:49;3.40;99.90
21861;DHT22;11095;48.066;8.540;2022-11-21T17:30:15;3.40;99.90
21861;DHT22;11095;48.066;8.540;2022-11-21T17:32:40;3.50;99.90
21861;DHT22;11095;48.066;8.540;2022-11-21T17:35:06;3.50;99.90
21861;DHT22;11095;48.066;8.540;2022-11-21T17:37:32;3.50;99.90
21861;DHT22;11095;48.066;8.540;2022-11-21T17:39:58;3.50;99.90
21861;DHT22;11095;48.066;8.540;2022-11-21T17:42:23;3.50;99.90
21861;DHT22;11095;48.066;8.540;2022-11-21T17:44:51;3.50;99.90
21861;DHT22;11095;48.066;8.540;2022-11-21T17:47:17;3.50;99.90
21861;DHT22;11095;48.066;8.540;2022-11-21T17:49:42;3.50;99.90
21861;DHT22;11095;48.066;8.540;2022-11-21T17:52:08;3.50;99.90
21861;DHT22;11095;48.066;8.540;2022-11-21T17:54:34;3.50;99.90
21861;DHT22;11095;48.066;8.540;2022-11-21T17:57:00;3.50;99.90
21861;DHT22;11095;48.066;8.540;2022-11-21T17:59:26;3.50;99.90
21861;DHT22;11095;48.066;8.540;2022-11-21T18:01:53;3.50;99.90
21861;DHT22;11095;48.066;8.540;2022-11-21T18:04:19;3.50;99.90
21861;DHT22;11095;48.066;8.540;2022-11-21T18:06:45;3.50;99.90
21861;DHT22;11095;48.066;8.540;2022-11-21T18:09:11;3.50;99.90